Time;durP1;ratioP1;P1;durP2;ratioP2;P2;SDS_P1;SDS_P2;PMS_P1;PMS_P2;Temp;Humidity;BMP_temperature;BMP_pressure;BME280_temperature;BME280_humidity;BME280_pressure;Samples;Min_cycle;Max_cycle;Signal;HPM_P1;HPM_P2
2022/05/29 00:00:49;;;;;;;0.10;0.10;;;;;;;21.87;44.95;101356.56;5130171;28;20477;-30
2022/05/29 00:03:16;;;;;;;0.10;0.10;;;;;;;21.88;44.92;101346.28;5129314;28;20079;-32
2022/05/29 00:05:42;;;;;;;0.13;0.13;;;;;;;21.86;45.00;101341.03;5130752;28;20616;-29
2022/05/29 00:08:13;;;;;;;0.10;0.10;;;;;;;21.88;44.89;101349.06;5112611;28;20051;-32
2022/05/29 00:10:40;;;;;;;0.10;0.10;;;;;;;21.87;45.06;101336.31;5128484;28;20075;-33
2022/05/29 00:13:06;;;;;;;0.10;0.10;;;;;;;21.87;44.94;101344.66;5129769;28;20071;-32
2022/05/29 00:15:32;;;;;;;0.10;0.10;;;;;;;21.86;44.90;101338.28;5129470;28;20474;-31
2022/05/29 00:17:57;;;;;;;0.10;0.10;;;;;;;21.87;44.89;101339.91;5129834;28;20043;-32
2022/05/29 00:20:23;;;;;;;0.10;0.10;;;;;;;21.86;44.67;101338.28;5129774;28;20378;-31
2022/05/29 00:22:49;;;;;;;0.10;0.10;;;;;;;21.85;44.99;101339.41;5130481;28;20069;-34
2022/05/29 00:25:14;;;;;;;0.10;0.10;;;;;;;21.87;44.95;101336.31;5130721;28;20041;-31
2022/05/29 00:27:40;;;;;;;0.10;0.10;;;;;;;21.86;44.68;101334.69;5112760;28;20466;-34
2022/05/29 00:30:09;;;;;;;0.10;0.10;;;;;;;21.86;44.87;101343.81;5130461;27;20454;-32
2022/05/29 00:32:34;;;;;;;0.10;0.10;;;;;;;21.86;45.00;101338.28;5130549;28;20063;-32
2022/05/29 00:35:00;;;;;;;0.10;0.10;;;;;;;21.85;44.99;101336.63;5129044;28;20717;-32
2022/05/29 00:37:27;;;;;;;0.10;0.10;;;;;;;21.86;44.95;101343.81;5129520;28;20477;-32
2022/05/29 00:39:53;;;;;;;0.10;0.10;;;;;;;21.85;45.05;101335.78;5130060;28;20048;-32
2022/05/29 00:42:22;;;;;;;0.10;0.10;;;;;;;21.86;44.96;101338.28;5130133;28;20418;-32
2022/05/29 00:44:47;;;;;;;0.10;0.10;;;;;;;21.86;45.00;101332.72;5125097;28;20082;-33
2022/05/29 00:47:17;;;;;;;0.10;0.10;;;;;;;21.85;45.06;101333.00;5128388;28;20039;-32
2022/05/29 00:49:45;;;;;;;0.10;0.10;;;;;;;21.87;44.90;101330.78;5109975;28;20138;-32
2022/05/29 00:52:14;;;;;;;0.10;0.10;;;;;;;21.84;45.27;101315.53;5130059;28;20066;-33
2022/05/29 00:54:44;;;;;;;0.10;0.10;;;;;;;21.86;44.85;101321.63;5129766;28;20047;-35
2022/05/29 00:57:11;;;;;;;0.10;0.10;;;;;;;21.85;44.99;101333.00;5128701;28;20146;-31
2022/05/29 00:59:37;;;;;;;0.10;0.10;;;;;;;21.85;44.95;101320.00;5129142;28;20130;-32
2022/05/29 01:02:03;;;;;;;0.10;0.10;;;;;;;21.85;44.88;101313.59;5129810;28;20058;-31
2022/05/29 01:04:31;;;;;;;0.10;0.10;;;;;;;21.85;45.08;101314.44;5129930;28;20043;-32
2022/05/29 01:06:57;;;;;;;;;;;;;;;21.83;44.83;101311.13;5131146;28;20093;-32
2022/05/29 01:09:23;;;;;;;0.10;0.10;;;;;;;21.83;44.95;101313.06;5129001;28;19927;-32
2022/05/29 01:12:16;;;;;;;0.10;0.10;;;;;;;21.84;44.89;101310.00;5130559;28;20042;-32
2022/05/29 01:14:54;;;;;;;0.10;0.10;;;;;;;21.84;44.91;101307.22;5114150;28;20600;-32
2022/05/29 01:17:32;;;;;;;0.10;0.10;;;;;;;21.84;44.92;101304.44;5130245;28;20067;-31
2022/05/29 01:20:21;;;;;;;0.10;0.10;;;;;;;21.84;44.96;101306.41;5130610;28;20432;-32
2022/05/29 01:23:04;;;;;;;0.10;0.10;;;;;;;21.84;45.11;101303.63;5131073;27;20301;-33
2022/05/29 01:25:45;;;;;;;0.10;0.10;;;;;;;21.83;44.86;101307.53;5128518;28;20447;-32
2022/05/29 01:28:38;;;;;;;0.10;0.10;;;;;;;21.83;44.95;101300.03;5129576;28;20130;-32
2022/05/29 01:31:09;;;;;;;0.10;0.10;;;;;;;21.83;45.02;101304.75;5114673;28;20070;-33
2022/05/29 01:33:42;;;;;;;0.10;0.10;;;;;;;21.82;44.97;101303.94;5131083;28;20046;-32
2022/05/29 01:39:07;;;;;;;0.10;0.10;;;;;;;21.83;44.96;101302.81;5161665;27;20202;-31
2022/05/29 01:41:36;;;;;;;0.10;0.10;;;;;;;21.82;45.01;101297.56;5157029;27;20050;-29
2022/05/29 01:44:14;;;;;;;0.10;0.10;;;;;;;21.82;45.02;101297.56;5145170;27;20044;-33
2022/05/29 01:46:41;;;;;;;0.10;0.10;;;;;;;21.83;44.96;101293.66;5145076;27;20077;-30
2022/05/29 01:49:19;;;;;;;0.10;0.10;;;;;;;21.82;45.00;101284.53;5143240;27;20085;-30
2022/05/29 01:51:53;;;;;;;0.10;0.10;;;;;;;21.81;44.97;101288.41;5140051;27;20060;-30
2022/05/29 01:54:25;;;;;;;0.10;0.10;;;;;;;21.81;44.89;101293.13;5149130;27;20346;-32
2022/05/29 01:56:55;;;;;;;0.10;0.10;;;;;;;21.81;44.90;101285.66;5147889;27;20473;-31
2022/05/29 01:59:25;;;;;;;0.10;0.10;;;;;;;21.83;45.05;101288.13;5147938;27;20474;-33
2022/05/29 02:01:55;;;;;;;0.10;0.10;;;;;;;21.82;44.90;101283.69;5124561;27;20082;-34
2022/05/29 02:04:23;;;;;;;0.10;0.10;;;;;;;21.81;44.82;101280.09;5148734;27;20062;-32
2022/05/29 02:09:40;;;;;;;0.10;0.10;;;;;;;21.81;44.91;101274.56;5138266;27;20092;-31
2022/05/29 02:12:09;;;;;;;0.10;0.10;;;;;;;21.81;44.90;101273.72;5147288;27;20370;-32
2022/05/29 02:14:40;;;;;;;0.10;0.10;;;;;;;21.82;44.95;101280.91;5145964;27;20135;-33
2022/05/29 02:17:10;;;;;;;0.10;0.10;;;;;;;21.79;44.89;101271.22;5145784;27;20321;-32
2022/05/29 02:19:42;;;;;;;0.10;0.10;;;;;;;21.79;44.89;101269.28;5127630;27;20038;-32
2022/05/29 02:22:12;;;;;;;0.10;0.10;;;;;;;21.79;44.86;101266.50;5147066;27;20108;-31
2022/05/29 02:24:42;;;;;;;0.10;0.10;;;;;;;21.81;44.95;101265.41;5149918;27;20453;-31
2022/05/29 02:27:14;;;;;;;0.10;0.10;;;;;;;21.81;44.90;101263.47;5149777;27;20278;-31
2022/05/29 02:29:40;;;;;;;0.10;0.10;;;;;;;21.80;44.95;101256.25;5145780;27;20307;-32
2022/05/29 02:32:17;;;;;;;0.10;0.10;;;;;;;21.79;44.96;101260.97;5149184;27;20049;-32
2022/05/29 02:35:11;;;;;;;0.10;0.10;;;;;;;21.79;44.89;101257.38;5144036;27;20073;-32
2022/05/29 02:37:44;;;;;;;0.10;0.10;;;;;;;21.79;45.03;101249.88;5132287;27;20130;-33
2022/05/29 02:43:39;;;;;;;0.10;0.10;;;;;;;21.78;44.98;101251.00;5165153;27;20120;-29
2022/05/29 02:46:15;;;;;;;0.10;0.10;;;;;;;21.79;44.83;101244.31;5130081;27;20058;-30
2022/05/29 02:49:10;;;;;;;0.10;0.10;;;;;;;21.78;44.81;101241.84;5144047;27;20039;-30
2022/05/29 02:51:48;;;;;;;0.10;0.10;;;;;;;21.78;44.93;101244.63;5128383;27;20137;-30
2022/05/29 02:54:22;;;;;;;0.10;0.10;;;;;;;21.78;44.89;101247.41;5145179;27;20085;-32
2022/05/29 02:56:47;;;;;;;0.10;0.10;;;;;;;21.77;45.00;101249.34;5137617;27;20506;-30
2022/05/29 02:59:13;;;;;;;0.10;0.10;;;;;;;21.79;44.88;101237.97;5140227;27;20061;-31
2022/05/29 03:02:11;;;;;;;0.10;0.10;;;;;;;21.78;44.99;101239.09;5140591;27;20510;-29
2022/05/29 03:05:01;;;;;;;0.10;0.10;;;;;;;21.78;44.91;101241.84;5121083;27;20074;-29
2022/05/29 03:07:40;;;;;;;0.10;0.10;;;;;;;21.78;44.91;101242.69;5108950;27;20139;-31
2022/05/29 03:16:05;;;;;;;0.10;0.10;;;;;;;21.78;44.94;101239.09;5169447;27;20209;-30
2022/05/29 03:18:39;;;;;;;0.10;0.10;;;;;;;21.76;44.92;101244.94;5130527;27;20049;-30
2022/05/29 03:21:30;;;;;;;0.10;0.10;;;;;;;21.77;44.81;101241.03;5144761;27;20486;-30
2022/05/29 03:24:19;;;;;;;0.10;0.10;;;;;;;21.77;44.91;101246.56;5131895;27;20050;-30
2022/05/29 03:26:54;;;;;;;0.10;0.10;;;;;;;21.77;44.85;101241.03;5145793;27;20051;-30
2022/05/29 03:29:46;;;;;;;0.10;0.10;;;;;;;21.77;44.99;101240.22;5143676;27;20214;-31
2022/05/29 03:32:11;;;;;;;0.10;0.10;;;;;;;21.76;44.94;101244.06;5130180;27;20531;-29
2022/05/29 03:34:37;;;;;;;0.10;0.10;;;;;;;21.76;45.02;101250.47;5146230;27;20051;-29
2022/05/29 03:37:03;;;;;;;0.10;0.10;;;;;;;21.77;44.89;101245.75;5145230;27;20035;-29
2022/05/29 03:39:29;;;;;;;0.10;0.10;;;;;;;21.77;44.90;101245.75;5146207;27;20043;-30
2022/05/29 03:41:55;;;;;;;0.10;0.10;;;;;;;21.76;44.99;101244.94;5131998;27;20405;-29
2022/05/29 03:44:22;;;;;;;0.10;0.10;;;;;;;21.76;44.92;101242.16;5125124;28;20047;-29
2022/05/29 03:46:48;;;;;;;0.10;0.10;;;;;;;21.76;44.94;101235.75;5124832;28;20067;-31
2022/05/29 03:49:16;;;;;;;0.10;0.10;;;;;;;21.76;44.77;101246.84;5123771;28;20142;-31
2022/05/29 03:51:42;;;;;;;0.10;0.10;;;;;;;21.76;44.93;101244.06;5121782;28;20115;-30
2022/05/29 03:54:08;;;;;;;0.10;0.10;;;;;;;21.76;44.88;101244.94;5124156;28;20043;-29
2022/05/29 03:56:34;;;;;;;0.10;0.10;;;;;;;21.75;44.92;101232.16;5123302;27;20089;-30
2022/05/29 03:59:00;;;;;;;0.10;0.10;;;;;;;21.75;44.94;101237.72;5123492;28;20047;-32
2022/05/29 04:01:26;;;;;;;0.10;0.10;;;;;;;21.76;44.90;101235.75;5105452;28;20054;-30
2022/05/29 04:03:54;;;;;;;0.10;0.10;;;;;;;21.76;44.89;101233.00;5125120;28;20047;-30
2022/05/29 04:06:23;;;;;;;0.10;0.10;;;;;;;21.75;44.77;101228.56;5106470;28;20100;-31
2022/05/29 04:12:05;;;;;;;0.10;0.10;;;;;;;21.76;44.99;101219.13;5106585;28;20086;-31
2022/05/29 04:14:21;;;;;;;0.10;0.10;;;;;;;21.76;44.86;101216.34;5107834;28;20461;-31
2022/05/29 04:16:47;;;;;;;0.10;0.10;;;;;;;21.76;44.98;101219.13;5121422;28;20134;-33
2022/05/29 04:19:13;;;;;;;0.10;0.10;;;;;;;21.75;44.89;101218.31;5123057;27;20047;-30
2022/05/29 04:21:38;;;;;;;0.10;0.10;;;;;;;21.76;44.94;101214.44;5124552;27;20493;-30
2022/05/29 04:24:04;;;;;;;0.10;0.10;;;;;;;21.75;44.85;101214.72;5124654;28;20051;-30
2022/05/29 04:26:30;;;;;;;0.10;0.10;;;;;;;21.75;44.89;101209.97;5109722;28;20046;-30
2022/05/29 04:28:55;;;;;;;0.10;0.10;;;;;;;21.75;44.90;101206.38;5109359;28;20088;-31
2022/05/29 04:31:21;;;;;;;0.10;0.10;;;;;;;21.74;44.88;101208.34;5108583;28;20043;-31
2022/05/29 04:33:48;;;;;;;0.10;0.10;;;;;;;21.75;44.92;101214.72;5110429;28;20108;-31
2022/05/29 04:36:14;;;;;;;0.10;0.10;;;;;;;21.75;44.81;101198.06;5109366;28;20427;-31
2022/05/29 04:38:39;;;;;;;0.10;0.10;;;;;;;21.74;44.88;101204.75;5107945;28;20452;-29
2022/05/29 04:41:07;;;;;;;0.10;0.10;;;;;;;21.74;44.97;101204.75;5109184;28;20039;-30
2022/05/29 04:43:33;;;;;;;0.10;0.10;;;;;;;21.74;44.88;101204.75;5106045;28;20076;-29
2022/05/29 04:45:59;;;;;;;0.10;0.10;;;;;;;21.74;45.13;101201.97;5092108;28;20113;-30
2022/05/29 04:48:24;;;;;;;0.10;0.10;;;;;;;21.74;44.87;101202.78;5106877;28;20479;-30
2022/05/29 04:50:58;;;;;;;0.10;0.10;;;;;;;21.73;44.87;101195.59;5109959;28;20368;-30
2022/05/29 04:53:25;;;;;;;0.10;0.10;;;;;;;21.74;44.96;101193.66;5109982;28;20097;-30
2022/05/29 04:55:52;;;;;;;0.10;0.10;;;;;;;21.73;44.96;101201.16;5109155;28;20074;-30
2022/05/29 04:58:18;;;;;;;0.10;0.10;;;;;;;21.73;44.82;101201.16;5105830;28;20083;-30
2022/05/29 05:00:45;;;;;;;0.10;0.10;;;;;;;21.73;44.79;101192.00;5110688;28;20047;-31
2022/05/29 05:03:11;;;;;;;0.10;0.10;;;;;;;21.73;44.85;101192.00;5108619;28;20040;-30
2022/05/29 05:05:36;;;;;;;0.10;0.10;;;;;;;21.74;44.85;101196.44;5107434;28;20120;-30
2022/05/29 05:08:03;;;;;;;0.10;0.10;;;;;;;21.73;44.94;101187.28;5109966;28;20045;-31
2022/05/29 05:10:29;;;;;;;0.10;0.10;;;;;;;21.73;44.85;101190.06;5107661;28;20471;-30
2022/05/29 05:12:54;;;;;;;0.10;0.10;;;;;;;21.73;44.94;101184.50;5109359;28;20068;-32
2022/05/29 05:15:20;;;;;;;0.10;0.10;;;;;;;21.73;44.76;101181.75;5109049;28;20054;-33
2022/05/29 05:17:46;;;;;;;0.10;0.10;;;;;;;21.72;44.87;101174.56;5109152;28;20066;-31
2022/05/29 05:20:12;;;;;;;0.10;0.10;;;;;;;21.72;44.89;101182.06;5107481;28;20040;-29
2022/05/29 05:22:38;;;;;;;0.10;0.10;;;;;;;21.72;44.80;101177.31;5092726;28;20103;-30
2022/05/29 05:25:05;;;;;;;0.10;0.10;;;;;;;21.72;44.96;101176.50;5109883;28;20048;-31
2022/05/29 05:27:31;;;;;;;0.10;0.10;;;;;;;21.72;45.08;101180.09;5090332;28;20459;-29
2022/05/29 05:29:56;;;;;;;0.20;0.20;;;;;;;21.71;44.89;101178.41;5108805;28;20039;-33
2022/05/29 05:32:22;;;;;;;0.10;0.10;;;;;;;21.71;45.09;101175.66;5109407;28;20134;-29
2022/05/29 05:34:48;;;;;;;0.10;0.10;;;;;;;21.72;44.81;101180.09;5107909;28;20056;-29
2022/05/29 05:37:14;;;;;;;0.10;0.10;;;;;;;21.72;44.84;101170.97;5107108;28;20050;-30
2022/05/29 05:39:41;;;;;;;0.10;0.10;;;;;;;21.72;44.89;101176.50;5090281;28;20515;-30
2022/05/29 05:42:07;;;;;;;0.10;0.10;;;;;;;21.71;44.85;101181.19;5110037;28;20531;-30
2022/05/29 05:44:33;;;;;;;0.10;0.10;;;;;;;21.72;44.89;101182.88;5109585;28;20474;-30
2022/05/29 05:46:59;;;;;;;0.10;0.10;;;;;;;21.72;44.81;101179.28;5108239;28;20051;-32
2022/05/29 05:49:28;;;;;;;0.10;0.10;;;;;;;21.72;44.84;101190.38;5105873;28;20040;-29
2022/05/29 05:51:55;;;;;;;0.10;0.10;;;;;;;21.71;44.82;101186.75;5108069;28;20554;-29
2022/05/29 05:54:20;;;;;;;0.10;0.10;;;;;;;21.71;44.82;101186.75;5108862;28;20128;-32
2022/05/29 05:56:50;;;;;;;0.20;0.20;;;;;;;21.71;44.85;101181.19;5106989;28;20039;-32
2022/05/29 05:59:15;;;;;;;0.13;0.13;;;;;;;21.71;44.84;101181.19;5090873;28;20082;-33
2022/05/29 06:01:41;;;;;;;0.10;0.10;;;;;;;21.71;45.05;101183.13;5109225;28;20039;-33
2022/05/29 06:04:07;;;;;;;0.10;0.10;;;;;;;21.71;44.77;101180.38;5109284;28;20047;-33
2022/05/29 06:06:33;;;;;;;0.10;0.10;;;;;;;21.70;44.73;101182.31;5109955;28;20134;-32
2022/05/29 06:08:59;;;;;;;0.10;0.10;;;;;;;21.70;44.87;101185.09;5107875;28;20040;-32
2022/05/29 06:11:26;;;;;;;0.10;0.10;;;;;;;21.70;44.88;101187.88;5108402;28;20048;-32
2022/05/29 06:13:52;;;;;;;0.10;0.10;;;;;;;21.70;44.91;101185.09;5108179;28;20075;-34
2022/05/29 06:16:18;;;;;;;0.10;0.10;;;;;;;21.71;44.85;101180.38;5107869;28;20055;-31
2022/05/29 06:18:44;;;;;;;0.10;0.10;;;;;;;21.71;44.78;101183.13;5088899;28;20458;-32
2022/05/29 06:21:10;;;;;;;0.10;0.10;;;;;;;21.69;44.85;101183.44;5108985;28;20467;-32
2022/05/29 06:23:38;;;;;;;0.10;0.10;;;;;;;21.70;44.80;101178.72;5109244;28;20055;-32
2022/05/29 06:26:07;;;;;;;0.10;0.10;;;;;;;21.70;44.79;101178.72;5107769;28;20079;-34
2022/05/29 06:28:33;;;;;;;0.13;0.13;;;;;;;21.70;44.81;101181.50;5107471;28;20125;-34
2022/05/29 06:30:59;;;;;;;0.10;0.10;;;;;;;21.70;44.87;101175.94;5106201;28;20426;-32
2022/05/29 06:33:29;;;;;;;0.10;0.10;;;;;;;21.70;44.78;101178.72;5109883;28;20044;-31
2022/05/29 06:36:20;;;;;;;0.10;0.10;;;;;;;21.70;44.90;101175.94;5106739;28;20092;-31
2022/05/29 06:38:46;;;;;;;0.10;0.10;;;;;;;21.70;44.79;101176.78;5108640;28;20551;-32
2022/05/29 06:41:14;;;;;;;0.10;0.10;;;;;;;21.70;44.82;101173.19;5107574;28;20075;-35
2022/05/29 06:43:40;;;;;;;0.20;0.20;;;;;;;21.70;44.78;101175.94;5106696;28;20386;-33
2022/05/29 06:46:07;;;;;;;0.10;0.10;;;;;;;21.70;44.82;101176.78;5088378;28;20050;-33
2022/05/29 06:48:34;;;;;;;0.10;0.10;;;;;;;21.68;44.87;101170.72;5104625;28;20075;-36
2022/05/29 06:51:04;;;;;;;0.10;0.10;;;;;;;21.69;44.90;101177.06;5104562;28;20079;-32
2022/05/29 06:53:30;;;;;;;0.10;0.10;;;;;;;21.69;44.87;101174.31;5090294;28;20046;-32
2022/05/29 06:55:56;;;;;;;0.10;0.10;;;;;;;21.69;44.85;101177.06;5087690;28;20786;-33
2022/05/29 06:58:22;;;;;;;0.10;0.10;;;;;;;21.68;44.90;101176.25;5107364;28;20059;-31
2022/05/29 07:09:10;;;;;;;0.10;0.10;;;;;;;21.67;44.83;101180.13;5089017;28;20035;-34
2022/05/29 07:11:38;;;;;;;0.10;0.10;;;;;;;21.69;44.87;101179.84;5106493;28;20310;-33
2022/05/29 07:14:05;;;;;;;0.10;0.10;;;;;;;21.68;44.84;101179.03;5108012;28;20129;-32
2022/05/29 07:16:32;;;;;;;0.10;0.10;;;;;;;21.68;44.80;101172.66;5106611;28;20132;-32
2022/05/29 07:18:59;;;;;;;0.10;0.10;;;;;;;21.68;44.78;101173.47;5105985;28;20073;-31
2022/05/29 07:21:25;;;;;;;0.10;0.10;;;;;;;21.68;44.80;101184.56;5106552;28;20510;-32
2022/05/29 07:23:51;;;;;;;0.10;0.10;;;;;;;21.68;44.80;101179.03;5108677;28;20083;-33
2022/05/29 07:26:17;;;;;;;0.10;0.10;;;;;;;21.68;44.88;101169.88;5107565;28;20053;-32
2022/05/29 07:28:42;;;;;;;0.10;0.10;;;;;;;21.67;44.83;101169.03;5089694;28;20047;-32
2022/05/29 07:31:08;;;;;;;0.10;0.10;;;;;;;21.68;44.79;101172.66;5107170;28;20130;-32
2022/05/29 07:33:34;;;;;;;0.10;0.10;;;;;;;21.68;44.80;101175.44;5089562;28;20043;-32
2022/05/29 07:36:00;;;;;;;0.10;0.10;;;;;;;21.67;44.79;101169.03;5106741;28;20128;-34
2022/05/29 07:38:27;;;;;;;0.10;0.10;;;;;;;21.66;44.74;101172.94;5106951;28;20097;-32
2022/05/29 07:40:53;;;;;;;0.10;0.10;;;;;;;21.68;44.83;101169.88;5089934;28;20116;-34
2022/05/29 07:43:18;;;;;;;0.10;0.10;;;;;;;21.67;44.82;101166.25;5088727;28;20075;-34
2022/05/29 07:45:47;;;;;;;0.10;0.10;;;;;;;21.67;44.82;101176.53;5105188;28;20054;-32
2022/05/29 07:48:14;;;;;;;0.10;0.10;;;;;;;21.67;44.90;101166.25;5106135;28;20093;-33
2022/05/29 07:50:40;;;;;;;0.10;0.10;;;;;;;21.67;44.88;101168.22;5107861;28;20083;-32
2022/05/29 07:53:06;;;;;;;0.10;0.10;;;;;;;21.67;44.92;101170.97;5107153;28;20048;-32
2022/05/29 07:55:32;;;;;;;0.10;0.10;;;;;;;21.67;44.88;101174.56;5105333;28;20051;-33
2022/05/29 07:57:57;;;;;;;0.10;0.10;;;;;;;21.66;44.83;101175.69;5106784;28;20040;-33
2022/05/29 08:00:23;;;;;;;0.10;0.10;;;;;;;21.66;44.87;101170.16;5108605;28;20443;-35
2022/05/29 08:02:49;;;;;;;0.10;0.10;;;;;;;21.66;44.83;101175.69;5111768;28;20044;-31
2022/05/29 08:05:18;;;;;;;0.10;0.10;;;;;;;21.67;44.78;101173.75;5108924;28;20494;-33
2022/05/29 08:07:46;;;;;;;0.10;0.10;;;;;;;21.67;44.97;101165.44;5109165;28;20082;-32
2022/05/29 08:10:14;;;;;;;0.10;0.10;;;;;;;21.67;44.80;101166.25;5111720;28;20065;-33
2022/05/29 08:12:41;;;;;;;0.10;0.10;;;;;;;21.66;44.84;101159.06;5091087;28;20173;-32
2022/05/29 08:15:07;;;;;;;0.10;0.10;;;;;;;21.66;44.90;101163.78;5109331;28;20071;-31
2022/05/29 08:17:32;;;;;;;0.10;0.10;;;;;;;21.67;44.76;101157.13;5109222;28;20054;-31
2022/05/29 08:19:58;;;;;;;0.10;0.10;;;;;;;21.67;44.85;101157.13;5109075;28;20132;-32
2022/05/29 08:22:24;;;;;;;0.10;0.10;;;;;;;21.67;44.89;101148.81;5111019;28;20051;-33
2022/05/29 08:30:43;;;;;;;0.10;0.10;;;;;;;21.65;44.85;101140.81;5095455;28;20075;-33
2022/05/29 08:33:15;;;;;;;0.10;0.10;;;;;;;21.66;44.81;101138.84;5108440;28;20040;-32
2022/05/29 08:35:42;;;;;;;0.10;0.10;;;;;;;21.65;44.88;101138.03;5089856;28;20090;-29
2022/05/29 08:38:09;;;;;;;0.10;0.10;;;;;;;21.66;44.74;101134.13;5110448;28;20094;-34
2022/05/29 08:40:40;;;;;;;0.10;0.10;;;;;;;21.65;44.75;101132.47;5107220;28;20500;-31
2022/05/29 08:43:10;;;;;;;0.10;0.10;;;;;;;21.66;44.79;101136.06;5091382;28;20106;-32
2022/05/29 08:45:37;;;;;;;0.10;0.10;;;;;;;21.65;44.94;101132.47;5107241;28;20051;-32
2022/05/29 08:48:03;;;;;;;0.10;0.10;;;;;;;21.65;44.75;101126.94;5108162;28;20470;-32
2022/05/29 08:50:41;;;;;;;0.10;0.10;;;;;;;21.66;44.85;101130.53;5110447;28;20081;-32
2022/05/29 08:53:12;;;;;;;;;;;;;;;21.65;44.95;101138.03;5109469;28;20067;-35
2022/05/29 08:55:45;;;;;;;0.10;0.10;;;;;;;21.64;44.87;101138.34;5108589;28;20015;-33
2022/05/29 08:58:50;;;;;;;0.10;0.10;;;;;;;21.65;44.93;101139.97;5091881;28;20054;-32
2022/05/29 09:01:40;;;;;;;0.10;0.10;;;;;;;21.64;44.97;101141.91;5080807;28;20081;-32
2022/05/29 09:04:12;;;;;;;0.10;0.10;;;;;;;21.64;44.86;101144.69;5095467;28;20047;-32
2022/05/29 09:06:42;;;;;;;0.10;0.10;;;;;;;21.64;44.89;101141.91;5110176;28;20062;-30
2022/05/29 09:09:34;;;;;;;0.10;0.10;;;;;;;21.64;44.87;101143.88;5109488;28;20067;-30
2022/05/29 09:12:05;;;;;;;0.10;0.10;;;;;;;21.65;44.98;101142.75;5094353;28;20153;-30
2022/05/29 09:14:38;;;;;;;0.10;0.10;;;;;;;21.65;44.84;101146.34;5092916;28;20384;-30
2022/05/29 09:17:09;;;;;;;0.10;0.10;;;;;;;21.64;44.84;101136.38;5109153;28;20032;-32
2022/05/29 09:19:56;;;;;;;0.10;0.10;;;;;;;21.65;44.93;101138.03;5107046;28;20094;-34
2022/05/29 09:22:28;;;;;;;0.10;0.10;;;;;;;21.65;44.86;101137.19;5093100;28;20131;-32
2022/05/29 09:25:23;;;;;;;0.10;0.10;;;;;;;21.64;44.85;101133.59;5091646;28;20126;-31
2022/05/29 09:27:49;;;;;;;0.10;0.10;;;;;;;21.64;44.87;101130.00;5092928;28;20090;-35
2022/05/29 09:30:15;;;;;;;0.10;0.10;;;;;;;21.65;44.82;101128.88;5110106;28;20043;-32
2022/05/29 09:32:48;;;;;;;0.10;0.10;;;;;;;21.63;44.91;101126.41;5091443;28;20039;-33
2022/05/29 09:35:24;;;;;;;0.10;0.10;;;;;;;21.64;44.93;101128.06;5088942;28;20127;-30
2022/05/29 09:37:59;;;;;;;0.10;0.10;;;;;;;21.64;44.69;101122.53;5090608;28;20067;-29
2022/05/29 09:40:30;;;;;;;0.10;0.10;;;;;;;21.64;44.91;101125.28;5108967;28;20450;-34
2022/05/29 09:42:55;;;;;;;0.10;0.10;;;;;;;21.64;44.93;101118.94;5109743;28;20078;-33
2022/05/29 09:45:25;;;;;;;0.10;0.10;;;;;;;21.64;44.90;101128.06;5108821;28;20050;-36
2022/05/29 09:50:48;;;;;;;0.10;0.10;;;;;;;21.64;44.89;101136.38;5091893;28;20130;-32
2022/05/29 09:53:21;;;;;;;0.10;0.10;;;;;;;21.64;44.86;101132.78;5108424;28;20067;-34
2022/05/29 09:55:52;;;;;;;0.10;0.10;;;;;;;21.64;44.95;101136.38;5089137;28;20134;-33
2022/05/29 09:58:44;;;;;;;0.10;0.10;;;;;;;21.64;44.94;101132.78;5108473;28;20071;-32
2022/05/29 10:01:10;;;;;;;0.10;0.10;;;;;;;21.64;45.02;101130.00;5095313;28;20126;-30
2022/05/29 10:03:43;;;;;;;0.10;0.10;;;;;;;21.63;44.79;101125.56;5107249;28;20455;-31
2022/05/29 10:06:16;;;;;;;0.10;0.10;;;;;;;21.64;44.83;101125.28;5107323;28;20047;-33
2022/05/29 10:08:44;;;;;;;0.10;0.10;;;;;;;21.63;44.85;101120.88;5109717;28;20082;-34
2022/05/29 10:11:22;;;;;;;0.10;0.10;;;;;;;21.63;44.82;101115.34;5088461;28;20470;-31
2022/05/29 10:13:50;;;;;;;0.10;0.10;;;;;;;21.64;44.81;101114.22;5108663;28;20132;-32
2022/05/29 10:16:34;;;;;;;0.10;0.10;;;;;;;21.64;44.90;101110.63;5111249;28;20066;-35
2022/05/29 10:19:00;;;;;;;0.10;0.10;;;;;;;21.62;44.93;101108.13;5104371;28;20050;-32
2022/05/29 10:21:29;;;;;;;0.10;0.10;;;;;;;21.64;44.79;101099.53;5106787;28;20127;-33
2022/05/29 10:24:10;;;;;;;0.10;0.10;;;;;;;21.63;44.80;101098.72;5089602;28;20475;-30
2022/05/29 10:26:36;;;;;;;0.10;0.10;;;;;;;21.62;44.89;101098.97;5107628;28;20132;-34
2022/05/29 10:29:12;;;;;;;0.10;0.10;;;;;;;21.63;44.89;101097.84;5090845;28;20499;-31
2022/05/29 10:31:39;;;;;;;0.20;0.20;;;;;;;21.63;44.92;101093.16;5108218;28;20152;-33
2022/05/29 10:34:09;;;;;;;0.10;0.10;;;;;;;21.64;44.78;101096.75;5105624;28;20071;-32
2022/05/29 10:36:37;;;;;;;0.10;0.10;;;;;;;21.63;44.94;101090.38;5107929;28;20071;-32
2022/05/29 10:39:07;;;;;;;0.10;0.10;;;;;;;21.63;44.85;101089.53;5090479;28;20075;-33
2022/05/29 10:41:36;;;;;;;0.10;0.10;;;;;;;21.63;44.82;101092.31;5106909;28;20462;-33
2022/05/29 10:44:02;;;;;;;0.10;0.10;;;;;;;21.62;44.88;101094.25;5089492;28;20099;-31
2022/05/29 10:46:53;;;;;;;0.10;0.10;;;;;;;21.64;45.02;101102.28;5107168;28;20057;-32
2022/05/29 10:49:39;;;;;;;0.10;0.10;;;;;;;21.63;44.88;101100.63;5104720;28;20138;-33
2022/05/29 10:52:35;;;;;;;0.10;0.10;;;;;;;21.63;44.82;101100.63;5092254;28;20486;-29
2022/05/29 10:55:16;;;;;;;0.10;0.10;;;;;;;21.62;44.91;101105.34;5090214;28;20479;-31
2022/05/29 10:58:12;;;;;;;0.10;0.10;;;;;;;21.62;44.95;101101.75;5105966;28;20448;-30
2022/05/29 11:01:05;;;;;;;0.10;0.10;;;;;;;21.62;44.89;101091.47;5093390;28;20557;-30
2022/05/29 11:03:47;;;;;;;0.10;0.10;;;;;;;21.61;44.94;101092.63;5093411;28;20130;-32
2022/05/29 11:06:34;;;;;;;0.10;0.10;;;;;;;21.61;44.83;101089.84;5108122;28;20044;-31
2022/05/29 11:09:40;;;;;;;0.10;0.10;;;;;;;21.62;44.91;101085.94;5093677;28;20109;-33
2022/05/29 11:12:26;;;;;;;0.10;0.10;;;;;;;21.62;44.88;101080.41;5081252;28;20043;-31
2022/05/29 11:15:17;;;;;;;0.10;0.10;;;;;;;21.62;44.82;101080.41;5108906;28;20076;-31
2022/05/29 11:20:55;;;;;;;0.10;0.10;;;;;;;21.62;44.89;101068.50;5168464;27;20209;-32
2022/05/29 11:23:32;;;;;;;0.10;0.10;;;;;;;21.61;44.93;101067.66;5147831;27;20461;-30
2022/05/29 11:26:22;;;;;;;0.10;0.10;;;;;;;21.62;44.72;101062.94;5143869;27;20074;-31
2022/05/29 11:29:15;;;;;;;0.10;0.10;;;;;;;21.62;44.77;101063.78;5148569;27;20082;-31
2022/05/29 11:32:22;;;;;;;0.10;0.10;;;;;;;21.62;44.97;101054.63;5115361;27;20510;-32
2022/05/29 11:35:01;;;;;;;0.10;0.10;;;;;;;21.61;44.92;101051.03;5130538;27;20140;-30
2022/05/29 11:37:59;;;;;;;0.10;0.10;;;;;;;21.62;44.86;101038.00;5145199;27;20069;-31
2022/05/29 11:40:29;;;;;;;0.10;0.10;;;;;;;21.61;44.87;101030.81;5129931;27;20145;-32
2022/05/29 11:43:16;;;;;;;0.10;0.10;;;;;;;21.61;44.94;101034.41;5114945;27;20073;-33
2022/05/29 11:51:37;;;;;;;0.10;0.10;;;;;;;21.60;44.92;101021.69;5109070;28;20078;-33
2022/05/29 11:54:14;;;;;;;0.10;0.10;;;;;;;21.61;44.88;101020.56;5121997;27;20050;-32
2022/05/29 11:56:44;;;;;;;0.10;0.10;;;;;;;21.61;44.97;101022.50;5127807;27;20078;-31
2022/05/29 11:59:49;;;;;;;0.10;0.10;;;;;;;21.62;44.95;101029.69;5130866;27;20176;-33
2022/05/29 12:02:30;;;;;;;0.10;0.10;;;;;;;21.61;44.92;101030.81;5112213;27;20071;-32
2022/05/29 12:05:08;;;;;;;0.10;0.10;;;;;;;21.62;44.80;101016.66;5125319;27;20395;-33
2022/05/29 12:07:43;;;;;;;0.10;0.10;;;;;;;21.61;44.87;101017.78;5124577;27;20526;-35
2022/05/29 12:10:21;;;;;;;0.10;0.10;;;;;;;21.61;44.88;101017.78;5126260;27;20088;-32
2022/05/29 12:12:48;;;;;;;;;;;;;;;21.61;44.84;101012.25;5126656;27;20132;-36
2022/05/29 12:15:17;;;;;;;0.10;0.10;;;;;;;21.60;45.05;101004.22;5128602;27;19963;-32
2022/05/29 12:17:49;;;;;;;0.10;0.10;;;;;;;21.61;45.02;101003.09;5122049;27;20441;-32
2022/05/29 12:20:22;;;;;;;0.20;0.20;;;;;;;21.61;44.97;100997.56;5125721;27;20133;-31
2022/05/29 12:22:51;;;;;;;0.10;0.10;;;;;;;21.61;44.86;100994.78;5126920;27;20074;-32
2022/05/29 12:25:31;;;;;;;0.10;0.10;;;;;;;21.61;44.96;100998.38;5126765;27;20574;-33
2022/05/29 12:28:01;;;;;;;0.10;0.10;;;;;;;21.61;44.81;100987.28;5121737;27;20086;-32
2022/05/29 12:30:32;;;;;;;0.10;0.10;;;;;;;21.62;44.82;100993.66;5124955;27;20487;-32